Trinidad, CA

8:20 AM PDT on July 05, 2015 (GMT -0700)
Parker Creek | | Change Station
CLOSE
Current Station
Personal Weather Station
Location: Trinidad, CA
Elevation: 177 ft
Nearby Weather Stations

Elev 177 ft 41.06 °N, 124.14 °W | Updated 15 minutes ago

Overcast
Overcast
55.6 °F
Feels Like 55.6 °F
N
0.0
Wind Variable Wind from SW
Gusts 2.0 mph

Today
High -- | Low -- °F
--% Chance of Precip.
Yesterday
High -- | Low -- °F
Precip. -- in
5:49 AM 8:52 PM
Waning Gibbous, 84% visible
Pressure 29.91 in
Visibility 1.5 miles
Clouds Overcast 300 ft
Dew Point 55 °F
Humidity 97%
Rainfall 0.00 in
Snow Depth Not available.
UV 1 out of 12
Pollen 5.10 out of 12
Air Quality Not available.
Flu Activity Not available.
SPECI KACV 051518Z AUTO 34007KT 1 1/2SM R32/3000VP6000FT BR OVC003 13/13 A2991 RMK AO2 T01330128

More Conditions Fewer Conditions

Pressure 29.91 in
Visibility 1.5 miles
Clouds Overcast 300 ft
Dew Point 55 °F
Humidity 97%
Rainfall 0.00 in
Snow Depth Not available.
UV 1 out of 12
Pollen 5.10 out of 12
Air Quality Not available.
Flu Activity Not available.
SPECI KACV 051518Z AUTO 34007KT 1 1/2SM R32/3000VP6000FT BR OVC003 13/13 A2991 RMK AO2 T01330128

More Conditions Fewer Conditions

10-Day Weather Forecast

×

Almanac

Astronomy

Jul. 05, 2015 Rise Set
Actual Time
Civil Twilight
Nautical Twilight
Astronomical Twilight
Moon
Length of Visible Light
Length of Day
Tomorrow will be .
, % of the Moon is Illuminated

Today's Extremes

State Highs State Lows

Community

WunderPhotos

Upload Photos

1,835,288 photos uploaded!

WunderBlogs® & News

Nearby

Air Quality

  Air Quality AQ Index Pollutant
Not available.

Snow Depth

Station Depth Elevation

Earthquake Activity

City Distance Mag. Time & Date
Minimum magnitude displayed is 2.5.

Coastal Water Temperatures

Place Temperature

Stations

Nearby Weather Stations

Station Location Temp. Windchill Dew Point Humidity Wind Precip. Elev Updated Type